AFL769 UWGG-UUEE
Flight info
| Callsign | AFL769 |
|---|---|
| Flight time | N/A |
| Altitude | 36000 |
| Route | LARNO2S LARNO T291 URIDU L158 DIMGI DIMGI3F |
| Aircraft | A320/M-SDE3FGHIRWY/LB1 |
Departure
| Time | 2026-05-07 03:47 |
|---|---|
| Airport | Nizhny Novgorod / Strigino International Airport (UWGG) |
Arrival
| Time | N/A |
|---|---|
| Airport | Sheremetyevo International Airport (UUEE) |
| Time | Latitude | Longitude | Altitude | Speed | Heading |
|---|---|---|---|---|---|
| 2026-05-07 03:02 | 56.22024 | 43.78847 | 266 ft | 0 kts | 101° |
| 2026-05-07 03:39 | 56.22025 | 43.78836 | 266 ft | 4 kts | 102° |
| 2026-05-07 03:39 | 56.22032 | 43.78790 | 266 ft | 4 kts | 114° |
| 2026-05-07 03:39 | 56.22043 | 43.78751 | 266 ft | 2 kts | 123° |
| 2026-05-07 03:39 | 56.22044 | 43.78750 | 266 ft | 0 kts | 123° |
| 2026-05-07 03:42 | 56.22042 | 43.78753 | 266 ft | 3 kts | 133° |
| 2026-05-07 03:42 | 56.22029 | 43.78757 | 266 ft | 2 kts | 180° |
| 2026-05-07 03:43 | 56.22022 | 43.78756 | 266 ft | 1 kts | 181° |
| 2026-05-07 03:43 | 56.22018 | 43.78756 | 266 ft | 0 kts | 181° |
| 2026-05-07 03:43 | 56.21994 | 43.78736 | 266 ft | 9 kts | 206° |
| 2026-05-07 03:44 | 56.21925 | 43.78662 | 266 ft | 12 kts | 231° |
| 2026-05-07 03:44 | 56.21831 | 43.78577 | 266 ft | 18 kts | 189° |
| 2026-05-07 03:44 | 56.21699 | 43.78532 | 266 ft | 20 kts | 192° |
| 2026-05-07 03:44 | 56.21565 | 43.78481 | 266 ft | 18 kts | 189° |
| 2026-05-07 03:45 | 56.21484 | 43.78412 | 266 ft | 11 kts | 243° |
| 2026-05-07 03:45 | 56.21489 | 43.78287 | 267 ft | 9 kts | 281° |
| 2026-05-07 03:45 | 56.21501 | 43.78187 | 267 ft | 7 kts | 282° |
| 2026-05-07 03:45 | 56.21515 | 43.78075 | 268 ft | 12 kts | 282° |
| 2026-05-07 03:46 | 56.21569 | 43.78061 | 268 ft | 8 kts | 13° |
| 2026-05-07 03:46 | 56.21598 | 43.78073 | 269 ft | 0 kts | 13° |
| 2026-05-07 03:46 | 56.21679 | 43.78102 | 268 ft | 44 kts | 11° |
| 2026-05-07 03:46 | 56.22219 | 43.78299 | 266 ft | 110 kts | 12° |
| 2026-05-07 03:47 | 56.23143 | 43.78637 | 271 ft | 160 kts | 8° |
| 2026-05-07 03:47 | 56.24278 | 43.78994 | 776 ft | 163 kts | 10° |
| 2026-05-07 03:47 | 56.25393 | 43.79368 | 1513 ft | 163 kts | 13° |
| 2026-05-07 03:47 | 56.26528 | 43.79799 | 2045 ft | 176 kts | 14° |
| 2026-05-07 03:48 | 56.27786 | 43.80367 | 2393 ft | 196 kts | 15° |
| 2026-05-07 03:48 | 56.29183 | 43.80985 | 2693 ft | 220 kts | 13° |
| 2026-05-07 03:48 | 56.30766 | 43.81567 | 3088 ft | 244 kts | 10° |
| 2026-05-07 03:48 | 56.32486 | 43.82165 | 3610 ft | 263 kts | 9° |
| 2026-05-07 03:49 | 56.34325 | 43.82800 | 4506 ft | 268 kts | 9° |
| 2026-05-07 03:49 | 56.36164 | 43.83444 | 5310 ft | 270 kts | 8° |
| 2026-05-07 03:49 | 56.37976 | 43.84144 | 6059 ft | 271 kts | 14° |
| 2026-05-07 03:49 | 56.39607 | 43.85922 | 6817 ft | 283 kts | 43° |
| 2026-05-07 03:50 | 56.40629 | 43.89002 | 7544 ft | 294 kts | 71° |
| 2026-05-07 03:50 | 56.40764 | 43.92713 | 8319 ft | 303 kts | 97° |
| 2026-05-07 03:50 | 56.40419 | 43.96493 | 9099 ft | 307 kts | 98° |
| 2026-05-07 03:50 | 56.40052 | 44.00326 | 9888 ft | 312 kts | 99° |
| 2026-05-07 03:51 | 56.39678 | 44.04217 | 10618 ft | 317 kts | 99° |
| 2026-05-07 03:51 | 56.39303 | 44.08157 | 11362 ft | 320 kts | 100° |
| 2026-05-07 03:51 | 56.38595 | 44.11965 | 12119 ft | 322 kts | 121° |
| 2026-05-07 03:51 | 56.37221 | 44.15115 | 12896 ft | 319 kts | 142° |
| 2026-05-07 03:52 | 56.35367 | 44.17197 | 13696 ft | 312 kts | 164° |
| 2026-05-07 03:52 | 56.33289 | 44.18020 | 14416 ft | 303 kts | 183° |
| 2026-05-07 03:52 | 56.31219 | 44.17626 | 14957 ft | 303 kts | 200° |
| 2026-05-07 03:52 | 56.29134 | 44.16487 | 15088 ft | 324 kts | 202° |
| 2026-05-07 03:53 | 56.26915 | 44.15212 | 15218 ft | 345 kts | 202° |
| 2026-05-07 03:53 | 56.24562 | 44.13855 | 15344 ft | 365 kts | 201° |
| 2026-05-07 03:53 | 56.22086 | 44.12443 | 15535 ft | 380 kts | 201° |
| 2026-05-07 03:53 | 56.19536 | 44.11011 | 16024 ft | 387 kts | 201° |
| 2026-05-07 03:54 | 56.16989 | 44.09596 | 16597 ft | 390 kts | 200° |
| 2026-05-07 03:54 | 56.14428 | 44.07948 | 17143 ft | 392 kts | 208° |
| 2026-05-07 03:54 | 56.12063 | 44.05526 | 17686 ft | 392 kts | 218° |
| 2026-05-07 03:54 | 56.09991 | 44.02360 | 18269 ft | 393 kts | 229° |
| 2026-05-07 03:55 | 56.08273 | 43.98561 | 18762 ft | 393 kts | 239° |
| 2026-05-07 03:55 | 56.06838 | 43.94385 | 19269 ft | 395 kts | 240° |
| 2026-05-07 03:55 | 56.05401 | 43.90172 | 19757 ft | 398 kts | 240° |
| 2026-05-07 03:55 | 56.03950 | 43.85941 | 20242 ft | 401 kts | 240° |
| 2026-05-07 03:56 | 56.02483 | 43.81685 | 20725 ft | 403 kts | 240° |
| 2026-05-07 03:56 | 56.01004 | 43.77414 | 21199 ft | 405 kts | 239° |
| 2026-05-07 03:56 | 55.99513 | 43.73124 | 21655 ft | 408 kts | 239° |
| 2026-05-07 03:56 | 55.98012 | 43.68805 | 22095 ft | 410 kts | 239° |
| 2026-05-07 03:57 | 55.97015 | 43.65930 | 22380 ft | 412 kts | 239° |
| 2026-05-07 03:57 | 55.95504 | 43.61566 | 22806 ft | 415 kts | 239° |
| 2026-05-07 03:57 | 55.93981 | 43.57183 | 23198 ft | 417 kts | 239° |
| 2026-05-07 03:57 | 55.92445 | 43.52775 | 23582 ft | 420 kts | 239° |
| 2026-05-07 03:58 | 55.90395 | 43.46905 | 24018 ft | 423 kts | 239° |
| 2026-05-07 03:58 | 55.88835 | 43.42457 | 24347 ft | 425 kts | 239° |
| 2026-05-07 03:58 | 55.87774 | 43.39437 | 24576 ft | 426 kts | 239° |
| 2026-05-07 03:58 | 55.85686 | 43.33503 | 24993 ft | 428 kts | 239° |
| 2026-05-07 03:59 | 55.84614 | 43.30463 | 25183 ft | 430 kts | 239° |
| 2026-05-07 03:59 | 55.83044 | 43.26006 | 25471 ft | 432 kts | 239° |
| 2026-05-07 03:59 | 55.81609 | 43.21316 | 25762 ft | 433 kts | 247° |
| 2026-05-07 03:59 | 55.80619 | 43.16254 | 26055 ft | 435 kts | 256° |
| 2026-05-07 04:00 | 55.80129 | 43.10949 | 26335 ft | 436 kts | 265° |
| 2026-05-07 04:00 | 55.80144 | 43.05549 | 26611 ft | 439 kts | 274° |
| 2026-05-07 04:00 | 55.80458 | 43.00147 | 26872 ft | 440 kts | 275° |
| 2026-05-07 04:00 | 55.80770 | 42.94727 | 27123 ft | 442 kts | 275° |
| 2026-05-07 04:01 | 55.81076 | 42.89279 | 27372 ft | 444 kts | 275° |
| 2026-05-07 04:01 | 55.81377 | 42.83811 | 27588 ft | 445 kts | 275° |
| 2026-05-07 04:01 | 55.81675 | 42.78334 | 27901 ft | 445 kts | 275° |
| 2026-05-07 04:01 | 55.81971 | 42.72857 | 28243 ft | 444 kts | 275° |
| 2026-05-07 04:02 | 55.82266 | 42.67398 | 28582 ft | 443 kts | 275° |
| 2026-05-07 04:02 | 55.82562 | 42.61955 | 28924 ft | 442 kts | 275° |
| 2026-05-07 04:02 | 55.82858 | 42.56520 | 29260 ft | 441 kts | 275° |
| 2026-05-07 04:02 | 55.83153 | 42.51076 | 29559 ft | 442 kts | 274° |
| 2026-05-07 04:03 | 55.83443 | 42.45635 | 29875 ft | 442 kts | 274° |
| 2026-05-07 04:03 | 55.83730 | 42.40195 | 30182 ft | 441 kts | 274° |
| 2026-05-07 04:03 | 55.84010 | 42.34842 | 30473 ft | 440 kts | 274° |
| 2026-05-07 04:03 | 55.84290 | 42.29422 | 30773 ft | 439 kts | 274° |
| 2026-05-07 04:04 | 55.84566 | 42.24016 | 31071 ft | 438 kts | 274° |
| 2026-05-07 04:04 | 55.84838 | 42.18620 | 31372 ft | 437 kts | 274° |
| 2026-05-07 04:04 | 55.85105 | 42.13237 | 31679 ft | 436 kts | 274° |
| 2026-05-07 04:04 | 55.85369 | 42.07867 | 31985 ft | 435 kts | 274° |
| 2026-05-07 04:05 | 55.85632 | 42.02516 | 32298 ft | 434 kts | 274° |
| 2026-05-07 04:05 | 55.85894 | 41.97168 | 32607 ft | 433 kts | 274° |
| 2026-05-07 04:05 | 55.86151 | 41.91840 | 32945 ft | 431 kts | 274° |
| 2026-05-07 04:05 | 55.86402 | 41.86541 | 33309 ft | 428 kts | 274° |
| 2026-05-07 04:06 | 55.86648 | 41.81264 | 33650 ft | 427 kts | 274° |
| 2026-05-07 04:06 | 55.86717 | 41.76000 | 33915 ft | 425 kts | 266° |
| 2026-05-07 04:06 | 55.86570 | 41.70747 | 33985 ft | 427 kts | 266° |
| 2026-05-07 04:07 | 55.86258 | 41.60164 | 33978 ft | 429 kts | 266° |
| 2026-05-07 04:07 | 55.85930 | 41.49605 | 33980 ft | 430 kts | 266° |
| 2026-05-07 04:08 | 55.85591 | 41.38976 | 33983 ft | 430 kts | 266° |
| 2026-05-07 04:08 | 55.85244 | 41.28343 | 33972 ft | 430 kts | 266° |
| 2026-05-07 04:09 | 55.84892 | 41.17710 | 33989 ft | 430 kts | 265° |
| 2026-05-07 04:09 | 55.84528 | 41.07105 | 33993 ft | 429 kts | 265° |
| 2026-05-07 04:10 | 55.84164 | 40.96524 | 33983 ft | 428 kts | 265° |
| 2026-05-07 04:10 | 55.83792 | 40.85961 | 33980 ft | 427 kts | 265° |
| 2026-05-07 04:11 | 55.83404 | 40.75393 | 33613 ft | 429 kts | 265° |
| 2026-05-07 04:11 | 55.83206 | 40.70156 | 33119 ft | 430 kts | 265° |
| 2026-05-07 04:11 | 55.83005 | 40.64848 | 32634 ft | 431 kts | 265° |
| 2026-05-07 04:11 | 55.82801 | 40.59519 | 32158 ft | 432 kts | 265° |
| 2026-05-07 04:12 | 55.82589 | 40.54185 | 31687 ft | 434 kts | 265° |
| 2026-05-07 04:12 | 55.82370 | 40.48824 | 31225 ft | 435 kts | 265° |
| 2026-05-07 04:12 | 55.82152 | 40.43456 | 30774 ft | 437 kts | 265° |
| 2026-05-07 04:12 | 55.81932 | 40.38057 | 30344 ft | 438 kts | 264° |
| 2026-05-07 04:13 | 55.81711 | 40.32664 | 29876 ft | 437 kts | 264° |
| 2026-05-07 04:13 | 55.81485 | 40.27275 | 29369 ft | 437 kts | 264° |
| 2026-05-07 04:13 | 55.81257 | 40.21878 | 28864 ft | 438 kts | 264° |
| 2026-05-07 04:13 | 55.81026 | 40.16474 | 28368 ft | 439 kts | 264° |
| 2026-05-07 04:14 | 55.80792 | 40.11051 | 27881 ft | 441 kts | 264° |
| 2026-05-07 04:14 | 55.80554 | 40.05610 | 27386 ft | 438 kts | 264° |
| 2026-05-07 04:14 | 55.80321 | 40.00287 | 26915 ft | 426 kts | 264° |
| 2026-05-07 04:14 | 55.80089 | 39.95094 | 26448 ft | 416 kts | 264° |
| 2026-05-07 04:15 | 55.79857 | 39.90031 | 26047 ft | 406 kts | 264° |
| 2026-05-07 04:15 | 55.79631 | 39.85121 | 25926 ft | 390 kts | 264° |
| 2026-05-07 04:15 | 55.79414 | 39.80400 | 25906 ft | 379 kts | 264° |
| 2026-05-07 04:15 | 55.79159 | 39.75779 | 25623 ft | 373 kts | 263° |
| 2026-05-07 04:16 | 55.78863 | 39.71213 | 25349 ft | 371 kts | 262° |
| 2026-05-07 04:16 | 55.78548 | 39.66677 | 25078 ft | 369 kts | 262° |
| 2026-05-07 04:16 | 55.78229 | 39.62166 | 24812 ft | 368 kts | 262° |
| 2026-05-07 04:16 | 55.77914 | 39.57727 | 24565 ft | 366 kts | 262° |
| 2026-05-07 04:17 | 55.77603 | 39.53255 | 24304 ft | 363 kts | 262° |
| 2026-05-07 04:17 | 55.77294 | 39.48824 | 24052 ft | 361 kts | 262° |
| 2026-05-07 04:17 | 55.76988 | 39.44413 | 23927 ft | 359 kts | 262° |
| 2026-05-07 04:17 | 55.76684 | 39.40000 | 23858 ft | 360 kts | 262° |
| 2026-05-07 04:18 | 55.76381 | 39.35603 | 23657 ft | 359 kts | 262° |
| 2026-05-07 04:18 | 55.76077 | 39.31215 | 23466 ft | 358 kts | 262° |
| 2026-05-07 04:18 | 55.75771 | 39.26829 | 23233 ft | 357 kts | 262° |
| 2026-05-07 04:18 | 55.75464 | 39.22455 | 23013 ft | 356 kts | 262° |
| 2026-05-07 04:19 | 55.75157 | 39.18097 | 22796 ft | 355 kts | 262° |
| 2026-05-07 04:19 | 55.74847 | 39.13753 | 22574 ft | 354 kts | 262° |
| 2026-05-07 04:19 | 55.74538 | 39.09426 | 22359 ft | 353 kts | 262° |
| 2026-05-07 04:19 | 55.74227 | 39.05118 | 22142 ft | 351 kts | 262° |
| 2026-05-07 04:20 | 55.73912 | 39.00824 | 21962 ft | 350 kts | 262° |
| 2026-05-07 04:20 | 55.73599 | 38.96549 | 21932 ft | 349 kts | 262° |
| 2026-05-07 04:20 | 55.73431 | 38.92246 | 21938 ft | 350 kts | 271° |
| 2026-05-07 04:21 | 55.73846 | 38.83635 | 21937 ft | 351 kts | 274° |
| 2026-05-07 04:21 | 55.74067 | 38.79312 | 21875 ft | 351 kts | 274° |
| 2026-05-07 04:21 | 55.74540 | 38.75072 | 21768 ft | 352 kts | 288° |
| 2026-05-07 04:21 | 55.75651 | 38.71202 | 21414 ft | 352 kts | 297° |
| 2026-05-07 04:22 | 55.76886 | 38.67523 | 21088 ft | 350 kts | 298° |
| 2026-05-07 04:22 | 55.78144 | 38.63829 | 20751 ft | 349 kts | 298° |
| 2026-05-07 04:22 | 55.79398 | 38.60157 | 20420 ft | 347 kts | 298° |
| 2026-05-07 04:22 | 55.80643 | 38.56502 | 20084 ft | 345 kts | 298° |
| 2026-05-07 04:23 | 55.81877 | 38.52861 | 19771 ft | 343 kts | 298° |
| 2026-05-07 04:23 | 55.83100 | 38.49229 | 19452 ft | 341 kts | 298° |
| 2026-05-07 04:23 | 55.84311 | 38.45613 | 19141 ft | 339 kts | 297° |
| 2026-05-07 04:23 | 55.85515 | 38.42010 | 18826 ft | 338 kts | 297° |
| 2026-05-07 04:24 | 55.86712 | 38.38424 | 18517 ft | 336 kts | 297° |
| 2026-05-07 04:24 | 55.87902 | 38.34856 | 18206 ft | 335 kts | 297° |
| 2026-05-07 04:24 | 55.89088 | 38.31299 | 17872 ft | 333 kts | 297° |
| 2026-05-07 04:24 | 55.90265 | 38.27762 | 17515 ft | 331 kts | 297° |
| 2026-05-07 04:25 | 55.91432 | 38.24242 | 17177 ft | 329 kts | 297° |
| 2026-05-07 04:25 | 55.92594 | 38.20740 | 16821 ft | 327 kts | 297° |
| 2026-05-07 04:25 | 55.93748 | 38.17256 | 16486 ft | 325 kts | 297° |
| 2026-05-07 04:25 | 55.94896 | 38.13786 | 16152 ft | 324 kts | 297° |
| 2026-05-07 04:26 | 55.96033 | 38.10337 | 15820 ft | 322 kts | 297° |
| 2026-05-07 04:26 | 55.97168 | 38.06894 | 15495 ft | 321 kts | 297° |
| 2026-05-07 04:26 | 55.98279 | 38.03513 | 15163 ft | 318 kts | 297° |
| 2026-05-07 04:26 | 55.99322 | 38.00061 | 14842 ft | 315 kts | 293° |
| 2026-05-07 04:27 | 56.00268 | 37.96524 | 14395 ft | 316 kts | 291° |
| 2026-05-07 04:27 | 56.01178 | 37.92961 | 13940 ft | 316 kts | 291° |
| 2026-05-07 04:27 | 56.02078 | 37.89372 | 13463 ft | 316 kts | 291° |
| 2026-05-07 04:27 | 56.02973 | 37.85789 | 12960 ft | 316 kts | 291° |
| 2026-05-07 04:28 | 56.03870 | 37.82207 | 12474 ft | 315 kts | 291° |
| 2026-05-07 04:28 | 56.04765 | 37.78648 | 11987 ft | 313 kts | 291° |
| 2026-05-07 04:28 | 56.05659 | 37.75101 | 11503 ft | 312 kts | 291° |
| 2026-05-07 04:28 | 56.06549 | 37.71574 | 11039 ft | 310 kts | 291° |
| 2026-05-07 04:29 | 56.07432 | 37.68064 | 10557 ft | 308 kts | 291° |
| 2026-05-07 04:29 | 56.08309 | 37.64575 | 10098 ft | 306 kts | 291° |
| 2026-05-07 04:29 | 56.09179 | 37.61115 | 9635 ft | 304 kts | 291° |
| 2026-05-07 04:29 | 56.10042 | 37.57681 | 9134 ft | 301 kts | 291° |
| 2026-05-07 04:30 | 56.10897 | 37.54270 | 8641 ft | 299 kts | 291° |
| 2026-05-07 04:30 | 56.11744 | 37.50889 | 8159 ft | 297 kts | 291° |
| 2026-05-07 04:30 | 56.12585 | 37.47524 | 7684 ft | 295 kts | 291° |
| 2026-05-07 04:30 | 56.13422 | 37.44178 | 7218 ft | 293 kts | 291° |
| 2026-05-07 04:31 | 56.14253 | 37.40850 | 6756 ft | 292 kts | 291° |
| 2026-05-07 04:31 | 56.15078 | 37.37532 | 6300 ft | 290 kts | 291° |
| 2026-05-07 04:31 | 56.15796 | 37.34219 | 6209 ft | 273 kts | 288° |
| 2026-05-07 04:31 | 56.16195 | 37.31128 | 6445 ft | 239 kts | 264° |
| 2026-05-07 04:32 | 56.15806 | 37.28365 | 6292 ft | 227 kts | 250° |
| 2026-05-07 04:32 | 56.15288 | 37.25817 | 6135 ft | 217 kts | 250° |
| 2026-05-07 04:32 | 56.14792 | 37.23281 | 5983 ft | 215 kts | 251° |
| 2026-05-07 04:32 | 56.14334 | 37.20737 | 5838 ft | 214 kts | 251° |
| 2026-05-07 04:33 | 56.13906 | 37.18192 | 5685 ft | 213 kts | 252° |
| 2026-05-07 04:33 | 56.13499 | 37.15643 | 5537 ft | 213 kts | 252° |